Avoca, PA

7:36 AM EDT on September 02, 2014 (GMT -0400)
Exeter, PA | Change Station
CLOSE
Current Station
Personal Weather Station
Location: Exeter, PA
Elevation: 558 ft
Nearby Weather Stations

Elev 558 ft 41.33 °N, 75.83 °W | Updated 13 minutes ago

Clear
Clear
68.9 °F
Feels Like 68.9 °F
N
0.0
Wind Variable Wind from South

Today
High -- | Low -- °F
--% Chance of Precip.
Yesterday
High -- | Low -- °F
Precip. -- in
6:30 AM 7:34 PM
Waxing Crescent, 50% visible
Pressure 29.91 in
Visibility 7.0 miles
Clouds Clear
Dew Point 69 °F
Humidity 99%
Rainfall 0.00 in
Snow Depth Not available.
UV 0 out of 12
Pollen 9.00 out of 12
Air Quality Not available.
Flu Activity Not available.
METAR KAVP 021054Z AUTO 25004KT 7SM CLR 22/20 A2994 RMK AO2 SLP129 T02170200 TSNO

More Conditions Fewer Conditions

Pressure 29.91 in
Visibility 7.0 miles
Clouds Clear
Dew Point 69 °F
Humidity 99%
Rainfall 0.00 in
Snow Depth Not available.
UV 0 out of 12
Pollen 9.00 out of 12
Air Quality Not available.
Flu Activity Not available.
METAR KAVP 021054Z AUTO 25004KT 7SM CLR 22/20 A2994 RMK AO2 SLP129 T02170200 TSNO

More Conditions Fewer Conditions

10-Day Weather Forecast

Almanac

Astronomy

Sep. 02, 2014 Rise Set
Actual Time 6:30 AM EDT 7:34 PM EDT
Civil Twilight 6:02 AM EDT 8:02 PM EDT
Nautical Twilight 5:28 AM EDT 8:36 PM EDT
Astronomical Twilight 4:52 AM EDT 9:11 PM EDT
Moon 2:17 PM EDT No Moon Set
Length of Visible Light 14h 00m
Length of Day
13h 03m
Tomorrow will be 2m 39s shorter.
Waxing Crescent, 50% of the Moon is Illuminated
Today
Waxing Crescent
Sep 8
Full
Sep 15
Last Quarter
Sep 24
New
Oct 1
First Quarter

Today's Extremes

State Highs State Lows

Community

WunderPhotos

Upload Photos

1,749,621 photos uploaded!

WunderBlogs® & News

By Dr. Jeff Masters
Director of Meteorology, Weather Underground
By Kari Strenfel
Meteorologist, Weather Underground
By Christopher C. Burt
Weather Historian, Weather Underground
September 2, 2014
September 2, 2014
September 2, 2014

Nearby

Snow Depth

Station Depth Elevation
No new snow has been reported.

Earthquake Activity

City Distance Mag. Time & Date
No recent earthquake activity has been reported nearby.
Minimum magnitude displayed is 2.5.

Coastal Water Temperatures

Place Temperature
No Stations Reporting

Nearby Weather Stations